createdAt,value
2022-11-16T00:02:07.108Z,100300.03
2022-11-16T00:04:33.683Z,100297.59
2022-11-16T00:07:02.666Z,100297.22
2022-11-16T00:09:31.912Z,100298.59
2022-11-16T00:12:09.580Z,100292.16
2022-11-16T00:14:36.442Z,100279.31
2022-11-16T00:17:04.225Z,100286.28
2022-11-16T00:19:30.980Z,100270.09
2022-11-16T00:21:57.736Z,100272.91
2022-11-16T00:24:24.391Z,100267.53
2022-11-16T00:26:54.074Z,100266.75
2022-11-16T00:29:23.464Z,100261.03
2022-11-16T00:31:50.391Z,100258.97
2022-11-16T00:34:17.345Z,100256.28
2022-11-16T00:36:44.284Z,100248.59
2022-11-16T00:39:15.724Z,100242.41
2022-11-16T00:41:42.736Z,100240.34
2022-11-16T00:44:10.251Z,100234.94
2022-11-16T00:46:37.383Z,100231.59
2022-11-16T00:49:05.513Z,100229.94
2022-11-16T00:51:33.757Z,100236.72
2022-11-16T00:54:00.901Z,100235.69
2022-11-16T00:56:27.518Z,100234.94
2022-11-16T00:58:54.047Z,100226.47
2022-11-16T01:01:20.562Z,100219.41
2022-11-16T01:03:47.928Z,100220.31
2022-11-16T01:06:15.956Z,100215.66
2022-11-16T01:08:44.254Z,100214.13
2022-11-16T01:11:32.473Z,100206.72
2022-11-16T01:13:59.026Z,100209.28
2022-11-16T01:16:25.484Z,100191.31
2022-11-16T01:18:54.175Z,100187.19
2022-11-16T01:21:22.432Z,100185.41
2022-11-16T01:23:49.278Z,100179.50
2022-11-16T01:26:15.941Z,100180.53
2022-11-16T01:28:42.472Z,100176.91
2022-11-16T01:31:10.313Z,100168.97
2022-11-16T01:33:39.649Z,100172.56
2022-11-16T01:36:17.258Z,100164.38
2022-11-16T01:38:45.643Z,100170.78
2022-11-16T01:41:18.061Z,100170.25
2022-11-16T01:43:53.658Z,100162.31
2022-11-16T01:46:20.285Z,100169.06
2022-11-16T01:48:48.856Z,100158.47
2022-11-16T01:51:15.705Z,100153.56
2022-11-16T01:53:42.289Z,100153.81
2022-11-16T01:56:09.276Z,100152.81
2022-11-16T01:58:36.490Z,100141.53
2022-11-16T02:01:03.772Z,100127.91
2022-11-16T02:03:30.263Z,100117.41
2022-11-16T02:06:11.878Z,100116.75
2022-11-16T02:09:26.263Z,100110.59
2022-11-16T02:11:56.463Z,100122.00
2022-11-16T02:14:36.680Z,100109.97
2022-11-16T02:17:27.684Z,100109.97
2022-11-16T02:20:18.905Z,100112.53
2022-11-16T02:22:48.369Z,100124.72
2022-11-16T02:25:27.611Z,100138.28
2022-11-16T02:28:06.040Z,100138.69
2022-11-16T02:30:33.056Z,100137.44
2022-11-16T02:33:06.077Z,100141.00
2022-11-16T02:35:40.509Z,100127.28
2022-11-16T02:38:13.451Z,100127.41
2022-11-16T02:40:46.281Z,100118.03
2022-11-16T02:43:21.087Z,100108.16
2022-11-16T02:45:50.880Z,100108.41
2022-11-16T02:48:23.493Z,100101.47
2022-11-16T02:50:53.351Z,100090.06
2022-11-16T02:53:22.035Z,100083.41
2022-11-16T02:55:48.472Z,100084.53
2022-11-16T02:58:20.110Z,100077.63
2022-11-16T03:01:00.033Z,100077.75
2022-11-16T03:03:43.591Z,100070.44
2022-11-16T03:06:16.506Z,100069.28
2022-11-16T03:08:47.916Z,100062.34
2022-11-16T03:11:33.096Z,100058.63
2022-11-16T03:14:03.719Z,100058.25
2022-11-16T03:16:35.276Z,100054.66
2022-11-16T03:19:05.599Z,100059.78
2022-11-16T03:21:58.110Z,100068.75
2022-11-16T03:24:25.218Z,100057.09
2022-11-16T03:27:11.227Z,100061.56
2022-11-16T03:29:46.929Z,100058.75
2022-11-16T03:32:25.286Z,100058.38
2022-11-16T03:34:59.877Z,100043.09
2022-11-16T03:37:26.916Z,100028.34
2022-11-16T03:39:55.768Z,100018.59
2022-11-16T03:42:24.588Z,100018.59
2022-11-16T03:44:52.418Z,100018.59
2022-11-16T03:47:18.972Z,100023.09
2022-11-16T03:49:46.613Z,100024.50
2022-11-16T03:52:15.338Z,100024.13
2022-11-16T03:54:42.622Z,100038.97
2022-11-16T03:57:15.423Z,100041.84
2022-11-16T03:59:43.253Z,100045.16
2022-11-16T04:02:10.145Z,100037.84
2022-11-16T04:04:54.877Z,100037.19
2022-11-16T04:07:40.018Z,100041.72
2022-11-16T04:10:25.342Z,100054.13
2022-11-16T04:13:11.210Z,100045.03
2022-11-16T04:15:55.917Z,100050.94
2022-11-16T04:18:40.720Z,100043.22
2022-11-16T04:21:37.569Z,100053.50
2022-11-16T04:24:13.200Z,100056.69
2022-11-16T04:27:06.939Z,100050.03
2022-11-16T04:29:34.478Z,100044.50
2022-11-16T04:32:20.061Z,100032.69
2022-11-16T04:35:05.437Z,100015.78
2022-11-16T04:37:49.727Z,100016.53
2022-11-16T04:40:17.115Z,100013.59
2022-11-16T04:42:43.626Z,100010.25
2022-11-16T04:45:28.955Z,100010.75
2022-11-16T04:47:55.410Z,100027.47
2022-11-16T04:50:21.892Z,100026.81
2022-11-16T04:52:48.358Z,100017.31
2022-11-16T04:55:14.853Z,100017.81
2022-11-16T04:57:41.345Z,100017.31
2022-11-16T05:00:08.695Z,100011.53
2022-11-16T05:02:35.288Z,100010.63
2022-11-16T05:05:01.840Z,100003.56
2022-11-16T05:07:28.379Z,99993.97
2022-11-16T05:09:54.866Z,99992.53
2022-11-16T05:12:26.728Z,99995.22
2022-11-16T05:14:54.942Z,100000.63
2022-11-16T05:17:22.705Z,100006.00
2022-11-16T05:20:07.837Z,99996.78
2022-11-16T05:22:35.232Z,99992.28
2022-11-16T05:25:01.952Z,99996.25
2022-11-16T05:27:29.496Z,99993.94
2022-11-16T05:29:56.558Z,99989.44
2022-11-16T05:32:24.551Z,99969.06
2022-11-16T05:34:51.095Z,99961.09
2022-11-16T05:37:19.094Z,99961.09
2022-11-16T05:39:45.591Z,99968.91
2022-11-16T05:42:12.024Z,99963.78
2022-11-16T05:44:38.491Z,99966.63
2022-11-16T05:47:05.704Z,99964.69
2022-11-16T05:49:32.164Z,99954.94
2022-11-16T05:51:58.719Z,99952.38
2022-11-16T05:54:26.136Z,99955.47
2022-11-16T05:56:54.030Z,99952.09
2022-11-16T05:59:22.647Z,99946.47
2022-11-16T06:01:49.931Z,99947.34
2022-11-16T06:04:16.476Z,99945.94
2022-11-16T06:06:43.208Z,99947.09
2022-11-16T06:09:11.442Z,99934.38
2022-11-16T06:11:38.369Z,99936.72
2022-11-16T06:14:05.651Z,99933.25
2022-11-16T06:16:32.172Z,99930.78
2022-11-16T06:18:59.773Z,99933.63
2022-11-16T06:21:26.334Z,99931.06
2022-11-16T06:23:52.856Z,99934.50
2022-11-16T06:26:19.322Z,99924.38
2022-11-16T06:28:45.813Z,99928.84
2022-11-16T06:31:12.290Z,99912.53
2022-11-16T06:33:38.730Z,99897.03
2022-11-16T06:36:05.503Z,99883.31
2022-11-16T06:38:32.215Z,99867.13
2022-11-16T06:40:59.176Z,99854.03
2022-11-16T06:43:26.198Z,99846.06
2022-11-16T06:45:54.856Z,99839.91
2022-11-16T06:48:22.376Z,99829.03
2022-11-16T06:50:49.915Z,99822.69
2022-11-16T06:53:17.345Z,99826.84
2022-11-16T06:55:43.943Z,99837.34
2022-11-16T06:58:10.480Z,99844.16
2022-11-16T07:00:37.016Z,99852.97
2022-11-16T07:03:03.835Z,99847.06
2022-11-16T07:05:31.374Z,99858.88
2022-11-16T07:07:58.324Z,99867.25
2022-11-16T07:10:25.515Z,99853.75
2022-11-16T07:12:51.970Z,99849.38
2022-11-16T07:15:19.361Z,99856.69
2022-11-16T07:17:45.973Z,99862.19
2022-11-16T07:20:12.543Z,99868.88
2022-11-16T07:22:39.112Z,99882.47
2022-11-16T07:25:06.082Z,99885.16
2022-11-16T07:27:32.510Z,99893.75
2022-11-16T07:29:58.988Z,99887.88
2022-11-16T07:32:25.441Z,99893.22
2022-11-16T07:34:51.884Z,99897.84
2022-11-16T07:37:18.295Z,99902.84
2022-11-16T07:39:45.692Z,99905.03
2022-11-16T07:42:12.270Z,99907.63
2022-11-16T07:44:39.239Z,99904.81
2022-11-16T07:47:07.033Z,99908.63
2022-11-16T07:49:33.447Z,99910.09
2022-11-16T07:51:59.932Z,99908.13
2022-11-16T07:54:26.385Z,99908.69
2022-11-16T07:56:52.860Z,99912.81
2022-11-16T07:59:19.313Z,99904.31
2022-11-16T08:01:49.029Z,99912.28
2022-11-16T08:04:17.376Z,99912.16
2022-11-16T08:06:44.488Z,99918.97
2022-11-16T08:09:10.944Z,99931.16
2022-11-16T08:11:37.989Z,99933.81
2022-11-16T08:14:04.587Z,99937.81
2022-11-16T08:16:33.171Z,99936.56
2022-11-16T08:19:02.225Z,99945.66
2022-11-16T08:21:28.788Z,99945.91
2022-11-16T08:23:58.330Z,99944.66
2022-11-16T08:26:25.285Z,99936.56
2022-11-16T08:28:53.599Z,99923.09
2022-11-16T08:31:22.457Z,99929.25
2022-11-16T08:33:48.995Z,99936.28
2022-11-16T08:36:18.646Z,99936.66
2022-11-16T08:38:46.355Z,99927.31
2022-11-16T08:41:13.442Z,99920.22
2022-11-16T08:43:40.564Z,99920.50
2022-11-16T08:46:08.339Z,99915.75
2022-11-16T08:48:36.250Z,99910.19
2022-11-16T08:51:20.903Z,99916.09
2022-11-16T08:53:49.384Z,99904.94
2022-11-16T08:56:17.797Z,99902.75
2022-11-16T08:58:46.831Z,99905.47
2022-11-16T09:01:19.002Z,99898.13
2022-11-16T09:03:46.312Z,99896.59
2022-11-16T09:06:13.694Z,99891.44
2022-11-16T09:08:42.625Z,99897.06
2022-11-16T09:11:18.663Z,99897.06
2022-11-16T09:13:46.632Z,99893.06
2022-11-16T09:16:16.463Z,99889.09
2022-11-16T09:18:44.235Z,99884.84
2022-11-16T09:21:10.700Z,99889.56
2022-11-16T09:23:37.126Z,99888.94
2022-11-16T09:26:05.457Z,99886.88
2022-11-16T09:28:32.398Z,99878.16
2022-11-16T09:31:04.306Z,99892.66
2022-11-16T09:33:31.547Z,99880.38
2022-11-16T09:36:07.157Z,99886.53
2022-11-16T09:39:13.959Z,99879.81
2022-11-16T09:42:16.499Z,99879.53
2022-11-16T09:45:04.579Z,99877.88
2022-11-16T09:47:40.572Z,99871.69
2022-11-16T09:50:19.076Z,99866.41
2022-11-16T09:52:51.054Z,99872.28
2022-11-16T09:55:24.027Z,99879.59
2022-11-16T09:57:55.550Z,99879.16
2022-11-16T10:00:24.216Z,99868.44
2022-11-16T10:03:06.822Z,99859.94
2022-11-16T10:05:43.550Z,99848.34
2022-11-16T10:08:17.299Z,99841.63
2022-11-16T10:10:51.124Z,99838.53
2022-11-16T10:13:17.494Z,99840.31
2022-11-16T10:16:06.685Z,99840.75
2022-11-16T10:18:58.980Z,99845.22
2022-11-16T10:21:37.295Z,99843.00
2022-11-16T10:24:32.059Z,99836.44
2022-11-16T10:27:07.228Z,99819.69
2022-11-16T10:29:36.670Z,99808.19
2022-11-16T10:32:22.069Z,99806.63
2022-11-16T10:35:09.107Z,99801.94
2022-11-16T10:37:41.023Z,99801.25
2022-11-16T10:40:29.202Z,99808.31
2022-11-16T10:43:20.710Z,99801.06
2022-11-16T10:46:15.463Z,99799.38
2022-11-16T10:48:54.275Z,99804.88
2022-11-16T10:51:20.713Z,99799.63
2022-11-16T10:53:47.161Z,99795.38
2022-11-16T10:56:13.728Z,99781.72
2022-11-16T10:58:53.804Z,99778.06
2022-11-16T11:01:49.922Z,99771.84
2022-11-16T11:04:24.550Z,99762.00
2022-11-16T11:06:53.412Z,99752.53
2022-11-16T11:09:27.185Z,99755.09
2022-11-16T11:12:32.615Z,99760.13
2022-11-16T11:15:12.567Z,99749.06
2022-11-16T11:17:45.311Z,99743.44
2022-11-16T11:20:17.934Z,99736.09
2022-11-16T11:23:00.360Z,99737.44
2022-11-16T11:25:34.309Z,99736.75
2022-11-16T11:28:21.496Z,99729.25
2022-11-16T11:30:56.457Z,99732.94
2022-11-16T11:33:24.404Z,99725.13
2022-11-16T11:35:58.470Z,99725.34
2022-11-16T11:38:25.759Z,99725.13
2022-11-16T11:40:57.703Z,99712.16
2022-11-16T11:43:25.478Z,99709.47
2022-11-16T11:46:04.434Z,99705.22
2022-11-16T11:48:37.846Z,99704.31
2022-11-16T11:51:27.268Z,99700.88
2022-11-16T11:53:56.220Z,99705.09
2022-11-16T11:56:24.041Z,99702.31
2022-11-16T11:58:51.880Z,99696.41
2022-11-16T12:01:36.374Z,99695.47
2022-11-16T12:04:28.197Z,99684.84
2022-11-16T12:07:12.870Z,99689.00
2022-11-16T12:10:03.555Z,99680.81
2022-11-16T12:12:48.206Z,99685.50
2022-11-16T12:15:39.570Z,99681.50
2022-11-16T12:18:20.122Z,99685.97
2022-11-16T12:21:15.737Z,99685.28
2022-11-16T12:24:00.726Z,99675.91
2022-11-16T12:27:05.598Z,99671.00
2022-11-16T12:30:00.032Z,99661.72
2022-11-16T12:33:00.200Z,99662.97
2022-11-16T12:35:51.659Z,99661.81
2022-11-16T12:38:27.839Z,99650.63
2022-11-16T12:41:10.286Z,99648.41
2022-11-16T12:43:59.457Z,99649.19
2022-11-16T12:46:49.972Z,99643.69
2022-11-16T12:49:31.715Z,99643.00
2022-11-16T12:52:36.807Z,99635.06
2022-11-16T12:55:52.064Z,99639.22
2022-11-16T12:58:47.212Z,99640.81
2022-11-16T13:01:35.366Z,99639.47
2022-11-16T13:04:09.817Z,99636.78
2022-11-16T13:06:50.119Z,99630.94
2022-11-16T13:09:21.588Z,99624.25
2022-11-16T13:11:51.524Z,99621.31
2022-11-16T13:14:23.002Z,99621.88
2022-11-16T13:16:52.008Z,99611.25
2022-11-16T13:19:18.777Z,99622.53
2022-11-16T13:22:04.311Z,99618.75
2022-11-16T13:24:53.656Z,99613.72
2022-11-16T13:27:28.506Z,99611.91
2022-11-16T13:30:13.729Z,99619.75
2022-11-16T13:33:12.334Z,99630.84
2022-11-16T13:35:39.453Z,99632.41
2022-11-16T13:38:12.511Z,99632.72
2022-11-16T13:40:40.025Z,99628.25
2022-11-16T13:43:09.187Z,99622.09
2022-11-16T13:45:49.777Z,99625.44
2022-11-16T13:48:16.148Z,99622.66
2022-11-16T13:50:49.928Z,99622.88
2022-11-16T13:56:51.370Z,99603.94
2022-11-16T13:59:26.256Z,99596.47
2022-11-16T14:02:01.573Z,99582.34
2022-11-16T14:04:49.643Z,99569.88
2022-11-16T14:07:30.122Z,99570.63
2022-11-16T14:09:56.698Z,99565.91
2022-11-16T14:12:38.297Z,99564.91
2022-11-16T14:15:16.832Z,99566.91
2022-11-16T14:17:58.648Z,99549.84
2022-11-16T14:20:52.938Z,99540.03
2022-11-16T14:23:44.538Z,99551.09
2022-11-16T14:26:21.051Z,99556.25
2022-11-16T14:29:10.260Z,99562.31
2022-11-16T14:31:57.597Z,99563.09
2022-11-16T14:34:46.114Z,99563.66
2022-11-16T14:37:24.423Z,99566.03
2022-11-16T14:39:53.389Z,99551.59
2022-11-16T14:42:25.858Z,99537.94
2022-11-16T14:45:01.505Z,99544.06
2022-11-16T14:47:30.543Z,99548.34
2022-11-16T14:49:57.605Z,99560.13
2022-11-16T14:52:38.466Z,99560.13
2022-11-16T14:55:08.148Z,99561.69
2022-11-16T14:57:35.187Z,99570.19
2022-11-16T15:00:17.391Z,99566.63
2022-11-16T15:02:52.058Z,99565.41
2022-11-16T15:05:27.117Z,99583.22
2022-11-16T15:07:57.377Z,99577.19
2022-11-16T15:10:27.666Z,99578.09
2022-11-16T15:12:55.742Z,99563.53
2022-11-16T15:15:28.645Z,99554.81
2022-11-16T15:18:08.173Z,99565.22
2022-11-16T15:20:37.743Z,99565.22
2022-11-16T15:23:12.175Z,99555.00
2022-11-16T15:25:38.565Z,99562.63
2022-11-16T15:28:13.490Z,99556.69
2022-11-16T15:30:40.460Z,99559.50
2022-11-16T15:33:16.233Z,99562.63
2022-11-16T15:35:42.743Z,99551.47
2022-11-16T15:38:25.951Z,99548.19
2022-11-16T15:40:54.916Z,99547.09
2022-11-16T15:43:31.267Z,99546.97
2022-11-16T15:45:59.609Z,99554.59
2022-11-16T15:48:27.778Z,99555.38
2022-11-16T15:51:06.125Z,99557.63
2022-11-16T15:53:43.042Z,99565.59
2022-11-16T15:56:26.675Z,99564.78
2022-11-16T15:58:55.332Z,99572.38
2022-11-16T16:01:22.938Z,99578.34
2022-11-16T16:04:06.804Z,99581.59
2022-11-16T16:06:50.055Z,99573.06
2022-11-16T16:09:25.732Z,99567.84
2022-11-16T16:11:53.625Z,99563.56
2022-11-16T16:14:28.434Z,99560.31
2022-11-16T16:16:58.140Z,99554.38
2022-11-16T16:19:36.064Z,99556.19
2022-11-16T16:22:06.056Z,99558.44
2022-11-16T16:24:46.280Z,99556.63
2022-11-16T16:27:21.924Z,99559.13
2022-11-16T16:29:50.112Z,99554.66
2022-11-16T16:32:29.949Z,99561.38
2022-11-16T16:34:58.794Z,99564.72
2022-11-16T16:37:33.436Z,99560.44
2022-11-16T16:40:00.428Z,99560.44
2022-11-16T16:42:26.946Z,99569.19
2022-11-16T16:44:53.669Z,99573.63
2022-11-16T16:47:20.806Z,99576.81
2022-11-16T16:49:48.400Z,99579.38
2022-11-16T16:52:14.879Z,99572.66
2022-11-16T16:54:41.658Z,99585.28
2022-11-16T16:57:15.851Z,99587.34
2022-11-16T16:59:45.111Z,99587.09
2022-11-16T17:02:12.355Z,99596.50
2022-11-16T17:04:38.998Z,99596.31
2022-11-16T17:07:05.605Z,99592.16
2022-11-16T17:09:32.087Z,99594.94
2022-11-16T17:11:58.534Z,99598.63
2022-11-16T17:14:25.020Z,99597.16
2022-11-16T17:16:52.145Z,99595.59
2022-11-16T17:19:19.773Z,99595.25
2022-11-16T17:21:46.328Z,99599.41
2022-11-16T17:24:12.869Z,99599.53
2022-11-16T17:26:41.033Z,99598.97
2022-11-16T17:29:07.493Z,99603.31
2022-11-16T17:31:34.015Z,99600.72
2022-11-16T17:34:00.487Z,99605.88
2022-11-16T17:36:26.928Z,99609.13
2022-11-16T17:38:53.653Z,99615.28
2022-11-16T17:41:22.181Z,99611.81
2022-11-16T17:43:52.984Z,99599.03
2022-11-16T17:46:21.339Z,99606.13
2022-11-16T17:48:48.331Z,99611.25
2022-11-16T17:51:19.953Z,99604.88
2022-11-16T17:53:46.856Z,99602.09
2022-11-16T17:56:15.355Z,99598.50
2022-11-16T17:58:41.901Z,99601.88
2022-11-16T18:01:08.670Z,99605.03
2022-11-16T18:03:36.439Z,99607.03
2022-11-16T18:06:05.940Z,99606.47
2022-11-16T18:08:33.368Z,99613.97
2022-11-16T18:11:06.965Z,99612.50
2022-11-16T18:13:34.639Z,99615.63
2022-11-16T18:16:03.677Z,99621.38
2022-11-16T18:18:30.160Z,99622.13
2022-11-16T18:20:56.616Z,99624.38
2022-11-16T18:23:23.049Z,99622.22
2022-11-16T18:25:49.450Z,99620.34
2022-11-16T18:28:18.460Z,99618.78
2022-11-16T18:30:44.988Z,99618.78
2022-11-16T18:33:11.484Z,99616.75
2022-11-16T18:35:37.964Z,99623.50
2022-11-16T18:38:05.527Z,99622.56
2022-11-16T18:40:31.930Z,99618.44
2022-11-16T18:42:58.396Z,99608.28
2022-11-16T18:45:24.879Z,99613.22
2022-11-16T18:47:51.345Z,99610.28
2022-11-16T18:50:22.627Z,99607.50
2022-11-16T18:52:52.199Z,99609.50
2022-11-16T18:55:18.615Z,99607.28
2022-11-16T18:57:45.080Z,99610.13
2022-11-16T19:00:12.370Z,99612.28
2022-11-16T19:02:38.856Z,99609.91
2022-11-16T19:05:06.035Z,99607.91
2022-11-16T19:07:32.641Z,99618.84
2022-11-16T19:09:59.459Z,99623.75
2022-11-16T19:12:25.859Z,99625.97
2022-11-16T19:14:52.258Z,99619.28
2022-11-16T19:17:20.287Z,99620.28
2022-11-16T19:19:46.731Z,99618.41
2022-11-16T19:22:13.158Z,99609.78
2022-11-16T19:24:39.616Z,99616.81
2022-11-16T19:27:06.126Z,99621.72
2022-11-16T19:29:32.536Z,99619.81
2022-11-16T19:31:58.998Z,99613.09
2022-11-16T19:34:30.395Z,99608.72
2022-11-16T19:36:59.503Z,99599.13
2022-11-16T19:39:26.654Z,99608.03
2022-11-16T19:41:53.102Z,99611.59
2022-11-16T19:44:20.000Z,99619.94
2022-11-16T19:46:46.417Z,99618.25
2022-11-16T19:49:19.609Z,99624.72
2022-11-16T19:51:46.475Z,99627.03
2022-11-16T19:54:14.817Z,99620.31
2022-11-16T19:56:42.349Z,99618.53
2022-11-16T19:59:08.979Z,99619.13
2022-11-16T20:01:35.992Z,99613.75
2022-11-16T20:04:03.584Z,99619.06
2022-11-16T20:06:38.564Z,99618.47
2022-11-16T20:09:09.522Z,99619.31
2022-11-16T20:11:38.117Z,99617.94
2022-11-16T20:14:07.291Z,99617.63
2022-11-16T20:16:39.000Z,99620.44
2022-11-16T20:19:07.456Z,99606.22
2022-11-16T20:21:36.981Z,99605.56
2022-11-16T20:24:07.114Z,99613.81
2022-11-16T20:26:35.378Z,99617.94
2022-11-16T20:29:02.140Z,99613.53
2022-11-16T20:31:31.169Z,99621.22
2022-11-16T20:34:02.601Z,99617.38
2022-11-16T20:36:30.183Z,99610.63
2022-11-16T20:38:57.961Z,99608.66
2022-11-16T20:41:26.717Z,99613.53
2022-11-16T20:43:55.229Z,99612.13
2022-11-16T20:46:23.517Z,99627.16
2022-11-16T20:48:50.218Z,99638.19
2022-11-16T20:51:18.825Z,99638.44
2022-11-16T20:53:46.984Z,99632.78
2022-11-16T20:56:14.066Z,99635.22
2022-11-16T20:58:41.332Z,99642.25
2022-11-16T21:01:13.505Z,99651.47
2022-11-16T21:03:40.398Z,99663.56
2022-11-16T21:06:09.702Z,99664.72
2022-11-16T21:08:37.368Z,99662.56
2022-11-16T21:11:26.027Z,99671.16
2022-11-16T21:14:11.513Z,99676.94
2022-11-16T21:16:38.694Z,99675.66
2022-11-16T21:19:05.894Z,99682.03
2022-11-16T21:21:32.487Z,99678.53
2022-11-16T21:23:59.540Z,99668.16
2022-11-16T21:26:31.070Z,99673.28
2022-11-16T21:28:58.812Z,99676.59
2022-11-16T21:31:30.818Z,99668.81
2022-11-16T21:33:58.045Z,99668.81
2022-11-16T21:36:26.285Z,99665.38
2022-11-16T21:38:53.064Z,99651.75
2022-11-16T21:41:21.109Z,99655.13
2022-11-16T21:43:47.943Z,99651.91
2022-11-16T21:46:17.266Z,99660.38
2022-11-16T21:48:44.503Z,99662.31
2022-11-16T21:51:13.405Z,99665.41
2022-11-16T21:53:40.064Z,99675.66
2022-11-16T21:56:08.181Z,99657.97
2022-11-16T21:58:34.635Z,99651.16
2022-11-16T22:01:02.415Z,99650.78
2022-11-16T22:03:31.437Z,99643.38
2022-11-16T22:06:18.823Z,99639.50
2022-11-16T22:08:46.011Z,99629.78
2022-11-16T22:11:13.682Z,99636.94
2022-11-16T22:13:40.422Z,99635.78
2022-11-16T22:16:12.400Z,99633.13
2022-11-16T22:18:39.140Z,99632.00
2022-11-16T22:21:06.194Z,99624.97
2022-11-16T22:23:33.418Z,99620.88
2022-11-16T22:26:05.850Z,99611.53
2022-11-16T22:28:33.587Z,99603.97
2022-11-16T22:31:01.943Z,99605.28
2022-11-16T22:33:28.750Z,99603.31
2022-11-16T22:35:55.468Z,99610.63
2022-11-16T22:38:21.884Z,99601.31
2022-11-16T22:40:50.531Z,99598.09
2022-11-16T22:43:17.470Z,99591.19
2022-11-16T22:45:43.879Z,99595.66
2022-11-16T22:48:10.343Z,99602.81
2022-11-16T22:50:36.781Z,99611.94
2022-11-16T22:53:03.195Z,99617.06
2022-11-16T22:55:29.644Z,99617.94
2022-11-16T22:57:56.119Z,99622.66
2022-11-16T23:00:23.705Z,99617.56
2022-11-16T23:02:51.821Z,99625.38
2022-11-16T23:05:18.275Z,99622.94
2022-11-16T23:07:44.738Z,99637.13
2022-11-16T23:10:11.172Z,99647.78
2022-11-16T23:12:56.128Z,99640.34
2022-11-16T23:15:40.785Z,99635.06
2022-11-16T23:18:07.251Z,99637.78
2022-11-16T23:20:52.847Z,99631.13
2022-11-16T23:23:38.613Z,99641.38
2022-11-16T23:26:30.419Z,99634.47
2022-11-16T23:28:56.928Z,99622.81
2022-11-16T23:31:23.508Z,99605.81
2022-11-16T23:33:49.924Z,99602.75
2022-11-16T23:36:16.404Z,99595.81
2022-11-16T23:38:42.858Z,99589.03
2022-11-16T23:41:28.197Z,99590.84
2022-11-16T23:43:57.813Z,99587.91
2022-11-16T23:46:28.619Z,99595.94
2022-11-16T23:48:55.385Z,99593.53
2022-11-16T23:51:23.340Z,99595.31
2022-11-16T23:53:54.289Z,99591.97
2022-11-16T23:56:21.666Z,99583.53
2022-11-16T23:58:48.492Z,99575.34
